sensor_id;sensor_type;location;lat;lon;timestamp;pressure;altitude;pressure_sealevel;temperature;humidity
61769;BME280;47669;48.712;9.016;2023-06-26T00:02:09;96566.88;;;16.54;65.63
61769;BME280;47669;48.712;9.016;2023-06-26T00:04:34;96572.53;;;16.19;67.00
61769;BME280;47669;48.712;9.016;2023-06-26T00:07:01;96569.06;;;16.18;66.79
61769;BME280;47669;48.712;9.016;2023-06-26T00:09:26;96575.94;;;16.53;66.12
61769;BME280;47669;48.712;9.016;2023-06-26T00:11:51;96573.69;;;16.06;66.98
61769;BME280;47669;48.712;9.016;2023-06-26T00:14:17;96575.34;;;15.90;68.10
61769;BME280;47669;48.712;9.016;2023-06-26T00:16:46;96571.94;;;16.34;66.83
61769;BME280;47669;48.712;9.016;2023-06-26T00:19:11;96575.91;;;15.92;68.40
61769;BME280;47669;48.712;9.016;2023-06-26T00:21:36;96576.75;;;15.98;67.80
61769;BME280;47669;48.712;9.016;2023-06-26T00:24:01;96577.66;;;16.42;66.31
61769;BME280;47669;48.712;9.016;2023-06-26T00:26:27;96580.66;;;16.07;67.90
61769;BME280;47669;48.712;9.016;2023-06-26T00:28:52;96575.22;;;16.02;67.51
61769;BME280;47669;48.712;9.016;2023-06-26T00:31:17;96573.78;;;16.11;67.05
61769;BME280;47669;48.712;9.016;2023-06-26T00:33:42;96574.38;;;15.79;68.43
61769;BME280;47669;48.712;9.016;2023-06-26T00:36:08;96576.19;;;15.96;67.65
61769;BME280;47669;48.712;9.016;2023-06-26T00:38:34;96571.44;;;15.98;68.37
61769;BME280;47669;48.712;9.016;2023-06-26T00:41:00;96575.22;;;16.02;67.90
61769;BME280;47669;48.712;9.016;2023-06-26T00:43:25;96572.31;;;15.70;69.71
61769;BME280;47669;48.712;9.016;2023-06-26T00:45:50;96566.34;;;15.62;68.78
61769;BME280;47669;48.712;9.016;2023-06-26T00:48:16;96575.91;;;15.92;67.86
61769;BME280;47669;48.712;9.016;2023-06-26T00:50:42;96572.94;;;16.11;67.16
61769;BME280;47669;48.712;9.016;2023-06-26T00:53:09;96571.44;;;15.81;69.01
61769;BME280;47669;48.712;9.016;2023-06-26T00:55:34;96580.06;;;15.54;69.47
61769;BME280;47669;48.712;9.016;2023-06-26T00:58:00;96566.69;;;15.83;68.94
61769;BME280;47669;48.712;9.016;2023-06-26T01:00:25;96574.78;;;15.42;70.28
61769;BME280;47669;48.712;9.016;2023-06-26T01:02:50;96576.03;;;15.52;69.14
61769;BME280;47669;48.712;9.016;2023-06-26T01:05:16;96574.34;;;15.45;69.98
61769;BME280;47669;48.712;9.016;2023-06-26T01:07:48;96574.63;;;15.49;69.45
61769;BME280;47669;48.712;9.016;2023-06-26T01:10:14;96573.38;;;16.19;67.05
61769;BME280;47669;48.712;9.016;2023-06-26T01:12:39;96574.97;;;15.53;69.40
61769;BME280;47669;48.712;9.016;2023-06-26T01:15:05;96566.25;;;15.40;70.08
61769;BME280;47669;48.712;9.016;2023-06-26T01:17:31;96576.25;;;15.33;70.23
61769;BME280;47669;48.712;9.016;2023-06-26T01:20:00;96575.34;;;15.27;70.05
61769;BME280;47669;48.712;9.016;2023-06-26T01:25:30;96570.56;;;15.13;71.32
61769;BME280;47669;48.712;9.016;2023-06-26T01:28:04;96569.47;;;15.42;70.17
61769;BME280;47669;48.712;9.016;2023-06-26T01:30:31;96561.88;;;15.51;68.40
61769;BME280;47669;48.712;9.016;2023-06-26T01:32:58;96570.84;;;15.45;69.10
61769;BME280;47669;48.712;9.016;2023-06-26T01:35:24;96565.44;;;15.40;70.09
61769;BME280;47669;48.712;9.016;2023-06-26T01:37:50;96560.00;;;15.18;70.79
61769;BME280;47669;48.712;9.016;2023-06-26T01:40:15;96554.50;;;15.07;71.81
61769;BME280;47669;48.712;9.016;2023-06-26T01:42:40;96558.88;;;15.14;71.14
61769;BME280;47669;48.712;9.016;2023-06-26T01:45:22;96559.41;;;14.99;72.20
61769;BME280;47669;48.712;9.016;2023-06-26T01:47:50;96564.31;;;14.90;71.83
61769;BME280;47669;48.712;9.016;2023-06-26T01:50:22;96559.47;;;15.04;71.79
61769;BME280;47669;48.712;9.016;2023-06-26T01:53:10;96551.69;;;15.14;71.81
61769;BME280;47669;48.712;9.016;2023-06-26T01:55:45;96550.00;;;15.25;71.22
61769;BME280;47669;48.712;9.016;2023-06-26T01:58:13;96552.28;;;15.33;71.31
61769;BME280;47669;48.712;9.016;2023-06-26T02:00:39;96543.72;;;15.31;70.39
61769;BME280;47669;48.712;9.016;2023-06-26T02:03:05;96548.66;;;15.39;69.36
61769;BME280;47669;48.712;9.016;2023-06-26T02:05:31;96553.00;;;15.29;70.20
61769;BME280;47669;48.712;9.016;2023-06-26T02:07:57;96550.09;;;14.84;71.81
61769;BME280;47669;48.712;9.016;2023-06-26T02:10:22;96561.94;;;14.94;71.86
61769;BME280;47669;48.712;9.016;2023-06-26T02:12:47;96547.25;;;15.03;71.22
61769;BME280;47669;48.712;9.016;2023-06-26T02:15:13;96552.88;;;14.78;72.18
61769;BME280;47669;48.712;9.016;2023-06-26T02:17:38;96560.22;;;14.59;73.45
61769;BME280;47669;48.712;9.016;2023-06-26T02:20:04;96558.22;;;14.66;73.49
61769;BME280;47669;48.712;9.016;2023-06-26T02:22:29;96564.97;;;14.57;74.15
61769;BME280;47669;48.712;9.016;2023-06-26T02:24:54;96559.28;;;14.53;73.97
61769;BME280;47669;48.712;9.016;2023-06-26T02:27:20;96564.31;;;14.90;72.75
61769;BME280;47669;48.712;9.016;2023-06-26T02:29:45;96559.41;;;14.99;72.63
61769;BME280;47669;48.712;9.016;2023-06-26T02:32:10;96555.69;;;14.71;73.24
61769;BME280;47669;48.712;9.016;2023-06-26T02:34:35;96561.75;;;14.83;72.71
61769;BME280;47669;48.712;9.016;2023-06-26T02:37:01;96565.34;;;14.89;71.94
61769;BME280;47669;48.712;9.016;2023-06-26T02:39:27;96562.97;;;14.64;73.25
61769;BME280;47669;48.712;9.016;2023-06-26T02:41:52;96565.44;;;15.40;69.94
61769;BME280;47669;48.712;9.016;2023-06-26T02:44:18;96560.06;;;15.06;71.49
61769;BME280;47669;48.712;9.016;2023-06-26T02:46:44;96561.66;;;14.78;72.04
61769;BME280;47669;48.712;9.016;2023-06-26T02:49:09;96557.34;;;14.89;72.42
61769;BME280;47669;48.712;9.016;2023-06-26T02:51:34;96558.34;;;15.00;71.55
61769;BME280;47669;48.712;9.016;2023-06-26T02:54:00;96554.34;;;14.57;72.85
61769;BME280;47669;48.712;9.016;2023-06-26T02:56:26;96558.59;;;14.58;73.58
61769;BME280;47669;48.712;9.016;2023-06-26T02:58:56;96560.19;;;14.71;73.35
61769;BME280;47669;48.712;9.016;2023-06-26T03:01:22;96560.34;;;14.52;73.88
61769;BME280;47669;48.712;9.016;2023-06-26T03:03:47;96559.50;;;14.75;73.02
61769;BME280;47669;48.712;9.016;2023-06-26T03:06:14;96558.94;;;14.50;74.50
61769;BME280;47669;48.712;9.016;2023-06-26T03:08:39;96560.06;;;14.54;74.62
61769;BME280;47669;48.712;9.016;2023-06-26T03:11:05;96555.03;;;14.40;75.09
61769;BME280;47669;48.712;9.016;2023-06-26T03:13:32;96560.94;;;14.31;75.25
61769;BME280;47669;48.712;9.016;2023-06-26T03:15:57;96563.94;;;14.34;75.40
61769;BME280;47669;48.712;9.016;2023-06-26T03:18:23;96556.53;;;14.48;74.53
61769;BME280;47669;48.712;9.016;2023-06-26T03:20:48;96558.97;;;14.26;75.62
61769;BME280;47669;48.712;9.016;2023-06-26T03:23:13;96555.81;;;14.53;74.75
61769;BME280;47669;48.712;9.016;2023-06-26T03:25:39;96560.75;;;14.73;73.61
61769;BME280;47669;48.712;9.016;2023-06-26T03:28:04;96563.59;;;14.31;75.28
61769;BME280;47669;48.712;9.016;2023-06-26T03:30:29;96559.91;;;14.43;74.41
61769;BME280;47669;48.712;9.016;2023-06-26T03:32:54;96562.47;;;14.27;74.49
61769;BME280;47669;48.712;9.016;2023-06-26T03:35:20;96562.75;;;14.54;75.19
61769;BME280;47669;48.712;9.016;2023-06-26T03:37:45;96564.72;;;14.46;75.03
61769;BME280;47669;48.712;9.016;2023-06-26T03:40:10;96565.31;;;14.49;75.15
61769;BME280;47669;48.712;9.016;2023-06-26T03:42:36;96564.69;;;14.70;74.44
61769;BME280;47669;48.712;9.016;2023-06-26T03:45:01;96564.75;;;15.16;72.48
61769;BME280;47669;48.712;9.016;2023-06-26T03:47:27;96564.72;;;14.99;72.65
61769;BME280;47669;48.712;9.016;2023-06-26T03:49:52;96560.50;;;14.86;73.45
61769;BME280;47669;48.712;9.016;2023-06-26T03:52:17;96568.66;;;14.96;73.28
61769;BME280;47669;48.712;9.016;2023-06-26T03:54:42;96568.66;;;14.56;74.42
61769;BME280;47669;48.712;9.016;2023-06-26T03:57:08;96565.88;;;14.62;74.38
61769;BME280;47669;48.712;9.016;2023-06-26T03:59:33;96563.25;;;14.91;72.75
61769;BME280;47669;48.712;9.016;2023-06-26T04:01:59;96566.38;;;15.17;72.08
61769;BME280;47669;48.712;9.016;2023-06-26T04:04:24;96567.28;;;15.22;72.38
61769;BME280;47669;48.712;9.016;2023-06-26T04:06:49;96565.50;;;14.71;74.57
61769;BME280;47669;48.712;9.016;2023-06-26T04:09:15;96573.03;;;14.62;75.01
61769;BME280;47669;48.712;9.016;2023-06-26T04:11:41;96568.75;;;14.49;75.72
61769;BME280;47669;48.712;9.016;2023-06-26T04:14:06;96572.81;;;14.52;75.82
61769;BME280;47669;48.712;9.016;2023-06-26T04:16:31;96570.81;;;14.71;75.34
61769;BME280;47669;48.712;9.016;2023-06-26T04:18:57;96568.59;;;14.79;75.48
61769;BME280;47669;48.712;9.016;2023-06-26T04:21:23;96575.31;;;15.11;73.45
61769;BME280;47669;48.712;9.016;2023-06-26T04:23:51;96576.03;;;15.06;73.90
61769;BME280;47669;48.712;9.016;2023-06-26T04:26:17;96575.22;;;15.05;74.48
61769;BME280;47669;48.712;9.016;2023-06-26T04:28:42;96569.38;;;15.20;73.51
61769;BME280;47669;48.712;9.016;2023-06-26T04:31:08;96574.78;;;15.42;72.54
61769;BME280;47669;48.712;9.016;2023-06-26T04:33:34;96569.47;;;15.59;71.65
61769;BME280;47669;48.712;9.016;2023-06-26T04:36:01;96570.00;;;15.90;70.30
61769;BME280;47669;48.712;9.016;2023-06-26T04:38:28;96568.16;;;15.74;71.00
61769;BME280;47669;48.712;9.016;2023-06-26T04:40:53;96561.44;;;16.05;70.00
61769;BME280;47669;48.712;9.016;2023-06-26T04:43:19;96557.81;;;15.94;70.34
61769;BME280;47669;48.712;9.016;2023-06-26T04:45:44;96558.91;;;16.15;70.19
61769;BME280;47669;48.712;9.016;2023-06-26T04:48:09;96561.16;;;16.23;69.71
61769;BME280;47669;48.712;9.016;2023-06-26T04:50:34;96563.69;;;16.35;69.03
61769;BME280;47669;48.712;9.016;2023-06-26T04:53:00;96562.34;;;16.33;69.50
61769;BME280;47669;48.712;9.016;2023-06-26T04:55:26;96551.59;;;16.72;67.75
61769;BME280;47669;48.712;9.016;2023-06-26T04:57:51;96560.19;;;16.96;66.21
61769;BME280;47669;48.712;9.016;2023-06-26T05:00:17;96552.47;;;17.26;66.78
61769;BME280;47669;48.712;9.016;2023-06-26T05:02:43;96551.47;;;17.05;65.68
61769;BME280;47669;48.712;9.016;2023-06-26T05:05:08;96554.31;;;17.21;65.32
61769;BME280;47669;48.712;9.016;2023-06-26T05:07:33;96552.28;;;17.65;64.34
61769;BME280;47669;48.712;9.016;2023-06-26T05:09:59;96551.25;;;18.04;62.95
61769;BME280;47669;48.712;9.016;2023-06-26T05:12:24;96548.03;;;18.07;62.65
61769;BME280;47669;48.712;9.016;2023-06-26T05:14:49;96546.59;;;18.31;61.86
61769;BME280;47669;48.712;9.016;2023-06-26T05:17:14;96541.53;;;18.35;60.26
61769;BME280;47669;48.712;9.016;2023-06-26T05:19:40;96550.22;;;18.68;58.87
61769;BME280;47669;48.712;9.016;2023-06-26T05:22:06;96554.75;;;18.62;57.20
61769;BME280;47669;48.712;9.016;2023-06-26T05:24:34;96552.47;;;18.86;57.46
61769;BME280;47669;48.712;9.016;2023-06-26T05:27:00;96557.31;;;19.05;57.78
61769;BME280;47669;48.712;9.016;2023-06-26T05:29:26;96551.19;;;19.09;56.99
61769;BME280;47669;48.712;9.016;2023-06-26T05:31:53;96559.78;;;19.11;56.19
61769;BME280;47669;48.712;9.016;2023-06-26T05:34:19;96559.25;;;19.25;56.08
61769;BME280;47669;48.712;9.016;2023-06-26T05:36:45;96558.22;;;19.57;55.71
61769;BME280;47669;48.712;9.016;2023-06-26T05:39:12;96552.59;;;19.89;55.45
61769;BME280;47669;48.712;9.016;2023-06-26T05:41:38;96555.53;;;20.03;54.58
61769;BME280;47669;48.712;9.016;2023-06-26T05:44:03;96553.41;;;19.95;53.44
61769;BME280;47669;48.712;9.016;2023-06-26T05:46:29;96553.59;;;20.34;52.25
61769;BME280;47669;48.712;9.016;2023-06-26T05:48:54;96544.16;;;20.42;52.67
61769;BME280;47669;48.712;9.016;2023-06-26T05:51:19;96546.88;;;20.37;52.51
61769;BME280;47669;48.712;9.016;2023-06-26T05:53:45;96546.34;;;20.29;52.29
61769;BME280;47669;48.712;9.016;2023-06-26T05:56:10;96542.13;;;20.88;51.64
61769;BME280;47669;48.712;9.016;2023-06-26T05:58:36;96544.66;;;20.59;51.71
61769;BME280;47669;48.712;9.016;2023-06-26T06:01:01;96540.06;;;20.70;51.47
61769;BME280;47669;48.712;9.016;2023-06-26T06:03:26;96544.50;;;20.95;51.32
61769;BME280;47669;48.712;9.016;2023-06-26T06:05:52;96545.41;;;21.25;49.60
61769;BME280;47669;48.712;9.016;2023-06-26T06:08:17;96536.16;;;21.46;50.34
61769;BME280;47669;48.712;9.016;2023-06-26T06:10:42;96540.72;;;21.46;50.46
61769;BME280;47669;48.712;9.016;2023-06-26T06:13:08;96537.88;;;21.66;49.14
61769;BME280;47669;48.712;9.016;2023-06-26T06:15:33;96529.63;;;21.87;49.06
61769;BME280;47669;48.712;9.016;2023-06-26T06:17:58;96529.63;;;21.87;48.28
61769;BME280;47669;48.712;9.016;2023-06-26T06:20:24;96535.09;;;22.06;47.54
61769;BME280;47669;48.712;9.016;2023-06-26T06:22:50;96537.28;;;22.04;48.02
61769;BME280;47669;48.712;9.016;2023-06-26T06:25:15;96541.19;;;22.46;48.39
61769;BME280;47669;48.712;9.016;2023-06-26T06:27:40;96538.94;;;22.29;47.90
61769;BME280;47669;48.712;9.016;2023-06-26T06:30:06;96547.06;;;22.48;48.11
61769;BME280;47669;48.712;9.016;2023-06-26T06:32:32;96544.38;;;22.72;47.42
61769;BME280;47669;48.712;9.016;2023-06-26T06:34:57;96549.59;;;22.63;47.80
61769;BME280;47669;48.712;9.016;2023-06-26T06:37:23;96547.06;;;22.48;46.98
61769;BME280;47669;48.712;9.016;2023-06-26T06:39:48;96539.22;;;22.75;48.22
61769;BME280;47669;48.712;9.016;2023-06-26T06:42:13;96537.94;;;23.11;46.74
61769;BME280;47669;48.712;9.016;2023-06-26T06:44:38;96535.03;;;23.26;47.03
61769;BME280;47669;48.712;9.016;2023-06-26T06:47:04;96542.81;;;23.09;46.92
61769;BME280;47669;48.712;9.016;2023-06-26T06:49:29;96542.75;;;23.33;46.79
61769;BME280;47669;48.712;9.016;2023-06-26T06:51:54;96543.16;;;23.59;47.38
61769;BME280;47669;48.712;9.016;2023-06-26T06:54:20;96537.97;;;23.63;46.84
61769;BME280;47669;48.712;9.016;2023-06-26T06:56:45;96545.81;;;23.97;45.77
61769;BME280;47669;48.712;9.016;2023-06-26T06:59:10;96540.63;;;24.01;46.12
61769;BME280;47669;48.712;9.016;2023-06-26T07:01:36;96539.13;;;24.36;45.68
61769;BME280;47669;48.712;9.016;2023-06-26T07:04:01;96535.34;;;24.23;44.61
61769;BME280;47669;48.712;9.016;2023-06-26T07:06:29;96542.00;;;24.72;44.38
61769;BME280;47669;48.712;9.016;2023-06-26T07:08:54;96538.00;;;24.56;43.85
61769;BME280;47669;48.712;9.016;2023-06-26T07:11:19;96540.38;;;24.71;43.93
61769;BME280;47669;48.712;9.016;2023-06-26T07:13:44;96525.03;;;24.94;42.87
61769;BME280;47669;48.712;9.016;2023-06-26T07:16:10;96530.34;;;24.86;43.43
61769;BME280;47669;48.712;9.016;2023-06-26T07:18:37;96521.19;;;25.23;42.24
61769;BME280;47669;48.712;9.016;2023-06-26T07:21:02;96521.03;;;25.42;41.54
61769;BME280;47669;48.712;9.016;2023-06-26T07:23:28;96524.53;;;25.43;41.96
61769;BME280;47669;48.712;9.016;2023-06-26T07:25:53;96531.34;;;25.63;40.93
61769;BME280;47669;48.712;9.016;2023-06-26T07:28:18;96525.75;;;26.04;41.21
61769;BME280;47669;48.712;9.016;2023-06-26T07:30:43;96525.63;;;25.87;40.67
61769;BME280;47669;48.712;9.016;2023-06-26T07:33:09;96521.13;;;26.45;41.01
61769;BME280;47669;48.712;9.016;2023-06-26T07:35:35;96524.25;;;26.29;40.84
61769;BME280;47669;48.712;9.016;2023-06-26T07:38:00;96530.31;;;26.66;40.92
61769;BME280;47669;48.712;9.016;2023-06-26T07:40:26;96530.28;;;26.57;39.85
61769;BME280;47669;48.712;9.016;2023-06-26T07:42:51;96526.34;;;26.32;41.33
61769;BME280;47669;48.712;9.016;2023-06-26T07:45:16;96525.66;;;26.67;39.75
61769;BME280;47669;48.712;9.016;2023-06-26T07:47:42;96534.56;;;26.58;38.29
61769;BME280;47669;48.712;9.016;2023-06-26T07:50:07;96541.53;;;26.99;36.69
61769;BME280;47669;48.712;9.016;2023-06-26T07:52:33;96531.06;;;27.24;35.67
61769;BME280;47669;48.712;9.016;2023-06-26T07:54:58;96526.06;;;27.09;35.47
61769;BME280;47669;48.712;9.016;2023-06-26T07:57:24;96517.66;;;27.36;36.29
61769;BME280;47669;48.712;9.016;2023-06-26T07:59:50;96521.81;;;27.34;35.87
61769;BME280;47669;48.712;9.016;2023-06-26T08:02:15;96526.28;;;27.30;35.27
61769;BME280;47669;48.712;9.016;2023-06-26T08:04:41;96524.22;;;27.27;35.18
61769;BME280;47669;48.712;9.016;2023-06-26T08:07:06;96517.94;;;27.87;36.05
61769;BME280;47669;48.712;9.016;2023-06-26T08:09:32;96517.91;;;28.05;35.02
61769;BME280;47669;48.712;9.016;2023-06-26T08:11:57;96518.41;;;27.89;34.18
61769;BME280;47669;48.712;9.016;2023-06-26T08:14:23;96516.00;;;27.79;34.88
61769;BME280;47669;48.712;9.016;2023-06-26T08:16:48;96521.09;;;27.98;33.46
61769;BME280;47669;48.712;9.016;2023-06-26T08:19:15;96512.00;;;27.94;34.22
61769;BME280;47669;48.712;9.016;2023-06-26T08:21:41;96518.59;;;27.75;34.25
61769;BME280;47669;48.712;9.016;2023-06-26T08:24:07;96514.03;;;28.14;34.21
61769;BME280;47669;48.712;9.016;2023-06-26T08:26:33;96506.84;;;28.48;33.73
61769;BME280;47669;48.712;9.016;2023-06-26T08:28:59;96500.75;;;28.60;33.59
61769;BME280;47669;48.712;9.016;2023-06-26T08:31:24;96506.56;;;28.50;33.58
61769;BME280;47669;48.712;9.016;2023-06-26T08:33:49;96507.56;;;28.28;33.50
61769;BME280;47669;48.712;9.016;2023-06-26T08:36:15;96506.34;;;28.16;33.28
61769;BME280;47669;48.712;9.016;2023-06-26T08:38:40;96505.44;;;28.42;32.58
61769;BME280;47669;48.712;9.016;2023-06-26T08:41:06;96507.63;;;28.57;32.05
61769;BME280;47669;48.712;9.016;2023-06-26T08:43:32;96504.84;;;28.28;32.79
61769;BME280;47669;48.712;9.016;2023-06-26T08:45:57;96503.59;;;28.63;31.74
61769;BME280;47669;48.712;9.016;2023-06-26T08:48:23;96507.56;;;28.96;33.24
61769;BME280;47669;48.712;9.016;2023-06-26T08:50:52;96503.53;;;28.72;32.49
61769;BME280;47669;48.712;9.016;2023-06-26T08:55:54;96506.03;;;28.86;32.37
61769;BME280;47669;48.712;9.016;2023-06-26T08:58:22;96508.50;;;28.49;32.20
61769;BME280;47669;48.712;9.016;2023-06-26T09:00:47;96500.94;;;29.06;32.12
61769;BME280;47669;48.712;9.016;2023-06-26T09:03:15;96499.00;;;29.15;32.30
61769;BME280;47669;48.712;9.016;2023-06-26T09:05:40;96507.22;;;28.97;31.90
61769;BME280;47669;48.712;9.016;2023-06-26T09:08:06;96505.47;;;29.43;31.64
61769;BME280;47669;48.712;9.016;2023-06-26T09:10:32;96498.06;;;29.32;31.13
61769;BME280;47669;48.712;9.016;2023-06-26T09:12:57;96507.19;;;29.27;30.49
61769;BME280;47669;48.712;9.016;2023-06-26T09:15:23;96508.22;;;29.56;29.83
61769;BME280;47669;48.712;9.016;2023-06-26T09:17:49;96509.56;;;29.71;29.84
61769;BME280;47669;48.712;9.016;2023-06-26T09:20:14;96507.63;;;29.08;30.09
61769;BME280;47669;48.712;9.016;2023-06-26T09:22:43;96499.50;;;29.29;30.57
61769;BME280;47669;48.712;9.016;2023-06-26T09:25:12;96503.00;;;29.84;29.83
61769;BME280;47669;48.712;9.016;2023-06-26T09:27:37;96497.13;;;29.94;28.33
61769;BME280;47669;48.712;9.016;2023-06-26T09:30:03;96498.50;;;30.46;29.25
61769;BME280;47669;48.712;9.016;2023-06-26T09:32:29;96501.47;;;30.08;30.32
61769;BME280;47669;48.712;9.016;2023-06-26T09:34:54;96495.13;;;30.28;29.00
61769;BME280;47669;48.712;9.016;2023-06-26T09:37:22;96501.66;;;29.90;29.52
61769;BME280;47669;48.712;9.016;2023-06-26T09:39:48;96503.72;;;29.60;30.06
61769;BME280;47669;48.712;9.016;2023-06-26T09:42:14;96499.31;;;29.68;29.12
61769;BME280;47669;48.712;9.016;2023-06-26T09:44:47;96495.59;;;30.18;29.99
61769;BME280;47669;48.712;9.016;2023-06-26T09:47:15;96503.91;;;29.55;29.61
61769;BME280;47669;48.712;9.016;2023-06-26T09:49:42;96496.59;;;29.13;29.38
61769;BME280;47669;48.712;9.016;2023-06-26T09:52:08;96492.00;;;29.80;29.52
61769;BME280;47669;48.712;9.016;2023-06-26T09:54:34;96486.66;;;29.84;30.19
61769;BME280;47669;48.712;9.016;2023-06-26T09:57:16;96486.69;;;29.30;29.89
61769;BME280;47669;48.712;9.016;2023-06-26T09:59:42;96491.75;;;30.19;30.17
61769;BME280;47669;48.712;9.016;2023-06-26T10:02:10;96485.06;;;29.71;29.99
61769;BME280;47669;48.712;9.016;2023-06-26T10:04:36;96492.28;;;29.67;30.83
61769;BME280;47669;48.712;9.016;2023-06-26T10:07:05;96490.69;;;30.11;29.41
61769;BME280;47669;48.712;9.016;2023-06-26T10:09:31;96490.25;;;30.21;29.38
61769;BME280;47669;48.712;9.016;2023-06-26T10:12:03;96490.66;;;30.57;29.82
61769;BME280;47669;48.712;9.016;2023-06-26T10:14:35;96495.44;;;29.35;31.02
61769;BME280;47669;48.712;9.016;2023-06-26T10:17:09;96498.94;;;28.94;30.93
61769;BME280;47669;48.712;9.016;2023-06-26T10:19:35;96496.59;;;29.34;30.97
61769;BME280;47669;48.712;9.016;2023-06-26T10:22:03;96497.44;;;30.38;30.14
61769;BME280;47669;48.712;9.016;2023-06-26T10:24:31;96504.94;;;30.54;30.41
61769;BME280;47669;48.712;9.016;2023-06-26T10:27:19;96509.47;;;30.25;32.60
61769;BME280;47669;48.712;9.016;2023-06-26T10:29:51;96516.06;;;29.91;33.84
61769;BME280;47669;48.712;9.016;2023-06-26T10:32:18;96510.41;;;30.91;33.11
61769;BME280;47669;48.712;9.016;2023-06-26T10:34:45;96510.09;;;29.97;33.69
61769;BME280;47669;48.712;9.016;2023-06-26T10:37:12;96517.59;;;29.46;33.52
61769;BME280;47669;48.712;9.016;2023-06-26T10:39:51;96522.34;;;29.91;33.61
61769;BME280;47669;48.712;9.016;2023-06-26T10:42:28;96526.13;;;30.11;34.25
61769;BME280;47669;48.712;9.016;2023-06-26T10:45:09;96533.59;;;30.60;32.97
61769;BME280;47669;48.712;9.016;2023-06-26T10:47:34;96545.81;;;29.41;35.17
61769;BME280;47669;48.712;9.016;2023-06-26T10:50:26;96541.59;;;29.11;35.46
61769;BME280;47669;48.712;9.016;2023-06-26T10:56:01;96552.72;;;28.11;38.33
61769;BME280;47669;48.712;9.016;2023-06-26T11:01:23;96547.50;;;28.53;37.42
61769;BME280;47669;48.712;9.016;2023-06-26T11:06:23;96550.06;;;28.79;36.62
61769;BME280;47669;48.712;9.016;2023-06-26T11:08:50;96544.91;;;28.57;36.77
61769;BME280;47669;48.712;9.016;2023-06-26T11:11:16;96547.63;;;28.48;36.43
61769;BME280;47669;48.712;9.016;2023-06-26T11:13:44;96552.59;;;27.64;37.58
61769;BME280;47669;48.712;9.016;2023-06-26T11:16:11;96541.13;;;29.30;36.13
61769;BME280;47669;48.712;9.016;2023-06-26T11:18:38;96545.75;;;28.78;35.93
61769;BME280;47669;48.712;9.016;2023-06-26T11:21:11;96545.72;;;29.08;35.13
61769;BME280;47669;48.712;9.016;2023-06-26T11:23:39;96555.84;;;28.31;36.29
61769;BME280;47669;48.712;9.016;2023-06-26T11:26:18;96551.75;;;28.93;35.49
61769;BME280;47669;48.712;9.016;2023-06-26T11:28:50;96558.25;;;28.23;36.76
61769;BME280;47669;48.712;9.016;2023-06-26T11:31:35;96549.44;;;28.35;37.87
61769;BME280;47669;48.712;9.016;2023-06-26T11:34:06;96546.63;;;29.42;35.27
61769;BME280;47669;48.712;9.016;2023-06-26T11:36:36;96563.38;;;29.53;35.40
61769;BME280;47669;48.712;9.016;2023-06-26T11:39:04;96557.97;;;29.44;36.07
61769;BME280;47669;48.712;9.016;2023-06-26T11:41:32;96566.88;;;30.08;35.30
61769;BME280;47669;48.712;9.016;2023-06-26T11:44:05;96559.28;;;29.59;35.14
61769;BME280;47669;48.712;9.016;2023-06-26T11:46:31;96555.81;;;30.37;35.41
61769;BME280;47669;48.712;9.016;2023-06-26T11:48:57;96554.81;;;29.96;35.46
61769;BME280;47669;48.712;9.016;2023-06-26T11:51:22;96574.13;;;30.86;34.81
61769;BME280;47669;48.712;9.016;2023-06-26T11:53:48;96561.41;;;31.27;33.32
61769;BME280;47669;48.712;9.016;2023-06-26T11:56:15;96569.22;;;29.63;35.49
61769;BME280;47669;48.712;9.016;2023-06-26T11:59:06;96563.13;;;30.70;34.96
61769;BME280;47669;48.712;9.016;2023-06-26T12:01:37;96572.09;;;30.00;36.25
61769;BME280;47669;48.712;9.016;2023-06-26T12:04:07;96571.25;;;29.46;36.49
61769;BME280;47669;48.712;9.016;2023-06-26T12:06:38;96569.03;;;30.02;35.28
61769;BME280;47669;48.712;9.016;2023-06-26T12:09:06;96577.81;;;29.87;36.17
61769;BME280;47669;48.712;9.016;2023-06-26T12:11:34;96572.88;;;28.96;37.68
61769;BME280;47669;48.712;9.016;2023-06-26T12:14:00;96570.25;;;29.92;36.54
61769;BME280;47669;48.712;9.016;2023-06-26T12:16:28;96582.22;;;29.58;36.63
61769;BME280;47669;48.712;9.016;2023-06-26T12:19:05;96572.72;;;29.43;37.06
61769;BME280;47669;48.712;9.016;2023-06-26T12:24:02;96564.13;;;29.95;37.60
61769;BME280;47669;48.712;9.016;2023-06-26T12:26:28;96565.63;;;30.38;35.93
61769;BME280;47669;48.712;9.016;2023-06-26T12:29:08;96569.69;;;30.32;35.87
61769;BME280;47669;48.712;9.016;2023-06-26T12:31:34;96571.97;;;30.30;36.39
61769;BME280;47669;48.712;9.016;2023-06-26T12:34:00;96571.44;;;30.61;37.96
61769;BME280;47669;48.712;9.016;2023-06-26T12:36:25;96565.16;;;29.28;37.70
61769;BME280;47669;48.712;9.016;2023-06-26T12:38:54;96577.13;;;30.11;36.74
61769;BME280;47669;48.712;9.016;2023-06-26T12:41:20;96575.41;;;30.06;36.63
61769;BME280;47669;48.712;9.016;2023-06-26T12:43:48;96570.03;;;30.43;36.69
61769;BME280;47669;48.712;9.016;2023-06-26T12:46:14;96557.38;;;30.26;37.12
61769;BME280;47669;48.712;9.016;2023-06-26T12:48:40;96575.13;;;29.66;37.88
61769;BME280;47669;48.712;9.016;2023-06-26T12:51:11;96573.25;;;30.57;36.98
61769;BME280;47669;48.712;9.016;2023-06-26T12:53:37;96565.47;;;29.68;36.93
61769;BME280;47669;48.712;9.016;2023-06-26T12:56:05;96565.16;;;30.36;36.03
61769;BME280;47669;48.712;9.016;2023-06-26T12:58:31;96569.66;;;29.23;37.65
61769;BME280;47669;48.712;9.016;2023-06-26T13:00:56;96569.03;;;30.72;36.56
61769;BME280;47669;48.712;9.016;2023-06-26T13:03:22;96576.91;;;30.28;36.66
61769;BME280;47669;48.712;9.016;2023-06-26T13:05:48;96569.47;;;30.37;36.53
61769;BME280;47669;48.712;9.016;2023-06-26T13:08:13;96577.06;;;30.32;36.01
61769;BME280;47669;48.712;9.016;2023-06-26T13:10:42;96579.72;;;31.27;35.37
61769;BME280;47669;48.712;9.016;2023-06-26T13:13:10;96581.06;;;30.47;34.92
61769;BME280;47669;48.712;9.016;2023-06-26T13:15:35;96591.81;;;29.13;36.58